Time;durP1;ratioP1;P1;durP2;ratioP2;P2;SDS_P1;SDS_P2;PMS_P1;PMS_P2;Temp;Humidity;BMP_temperature;BMP_pressure;BME280_temperature;BME280_humidity;BME280_pressure;Samples;Min_cycle;Max_cycle;Signal;HPM_P1;HPM_P2
2022/08/04 00:02:24;;;;;;;0.20;0.20;;;;;;;24.80;46.70;101142.25;5110238;28;20404;-86
2022/08/04 00:04:57;;;;;;;0.10;0.10;;;;;;;24.68;47.23;101143.50;5110417;28;20480;-86
2022/08/04 00:07:37;;;;;;;0.20;0.20;;;;;;;24.66;47.30;101149.88;5110389;28;20019;-86
2022/08/04 00:10:06;;;;;;;0.20;0.20;;;;;;;24.58;47.69;101155.94;5109926;28;20045;-86
2022/08/04 00:12:34;;;;;;;0.10;0.10;;;;;;;24.43;47.49;101138.97;5094005;28;20028;-86
2022/08/04 00:15:00;;;;;;;0.10;0.10;;;;;;;24.43;47.98;101144.25;5076454;28;20508;-86
2022/08/04 00:17:48;;;;;;;0.10;0.10;;;;;;;24.46;47.88;101149.25;5076427;28;20101;-86
2022/08/04 00:20:17;;;;;;;0.20;0.20;;;;;;;24.42;47.83;101150.53;5077278;28;20089;-86
2022/08/04 00:22:42;;;;;;;0.45;0.30;;;;;;;24.49;47.82;101159.53;5109777;28;20019;-86
2022/08/04 00:25:08;;;;;;;0.10;0.10;;;;;;;24.39;47.67;101145.56;5093091;28;20070;-86
2022/08/04 00:27:34;;;;;;;0.10;0.10;;;;;;;24.36;47.74;101132.63;5075968;28;20035;-85
2022/08/04 00:30:18;;;;;;;0.10;0.10;;;;;;;24.46;47.65;101159.81;5076163;28;20039;-86
2022/08/04 00:32:43;;;;;;;0.17;0.17;;;;;;;24.42;47.59;101142.59;5109983;28;20101;-86
2022/08/04 00:35:09;;;;;;;0.10;0.10;;;;;;;24.46;47.71;101157.16;5093192;28;20492;-86
2022/08/04 00:37:37;;;;;;;0.10;0.10;;;;;;;24.42;47.48;101153.19;5097169;28;20027;-86
2022/08/04 00:40:04;;;;;;;0.30;0.20;;;;;;;24.26;47.42;101125.56;5096989;28;20023;-86
2022/08/04 00:42:40;;;;;;;0.20;0.20;;;;;;;24.42;47.52;101151.38;5080389;28;20024;-86
2022/08/04 00:45:24;;;;;;;0.10;0.10;;;;;;;24.52;47.13;101156.56;5096978;28;20024;-86
2022/08/04 00:48:16;;;;;;;0.10;0.10;;;;;;;24.54;47.18;101167.81;5115269;27;20023;-85
2022/08/04 00:50:44;;;;;;;0.10;0.10;;;;;;;24.61;46.89;101171.53;5076098;28;20501;-86
2022/08/04 00:53:34;;;;;;;0.35;0.20;;;;;;;24.48;46.98;101158.69;5113423;28;20031;-86
2022/08/04 00:56:30;;;;;;;0.10;0.10;;;;;;;24.41;46.96;101156.81;5113617;28;20096;-86
2022/08/04 00:59:03;;;;;;;0.10;0.10;;;;;;;24.46;47.24;101167.75;5097947;28;20038;-86
2022/08/04 01:01:48;;;;;;;0.10;0.10;;;;;;;24.33;46.45;101132.94;5096611;28;20028;-86
2022/08/04 01:04:23;;;;;;;0.85;0.75;;;;;;;24.58;46.75;101177.97;5114048;28;20037;-86
2022/08/04 01:07:04;;;;;;;0.10;0.10;;;;;;;24.67;46.35;101178.00;5096227;28;20051;-86
2022/08/04 01:09:42;;;;;;;0.10;0.10;;;;;;;24.65;46.16;101169.41;5113492;28;20030;-87
2022/08/04 01:12:22;;;;;;;0.10;0.10;;;;;;;24.64;46.17;101176.50;5114407;28;20024;-86
2022/08/04 01:15:18;;;;;;;0.10;0.10;;;;;;;24.66;46.04;101171.88;5114707;28;20034;-85
2022/08/04 01:17:53;;;;;;;0.10;0.10;;;;;;;24.74;45.87;101179.88;5111328;28;20028;-86
2022/08/04 01:20:24;;;;;;;0.10;0.10;;;;;;;24.48;45.94;101139.31;5112514;28;20047;-86
2022/08/04 01:23:04;;;;;;;0.10;0.10;;;;;;;24.67;46.13;101170.91;5079332;28;20492;-86
2022/08/04 01:25:44;;;;;;;0.50;0.50;;;;;;;24.53;46.20;101155.59;5096265;28;20083;-86
2022/08/04 01:28:31;;;;;;;0.20;0.20;;;;;;;24.47;46.23;101153.53;5096954;28;20031;-86
2022/08/04 01:30:59;;;;;;;0.75;0.30;;;;;;;24.47;46.34;101146.44;5114657;28;20389;-86
2022/08/04 01:33:26;;;;;;;0.10;0.10;;;;;;;24.66;46.12;101185.13;5079198;28;20038;-87
2022/08/04 01:35:56;;;;;;;0.20;0.20;;;;;;;24.53;46.23;101166.16;5112358;28;20543;-86
2022/08/04 01:38:28;;;;;;;0.40;0.30;;;;;;;24.65;46.12;101180.81;5095890;28;20106;-86
2022/08/04 01:40:59;;;;;;;0.20;0.20;;;;;;;24.64;46.12;101184.44;5079096;28;20032;-86
2022/08/04 01:43:25;;;;;;;0.50;0.50;;;;;;;24.66;46.57;101195.69;5112910;28;20038;-86
2022/08/04 01:45:57;;;;;;;0.10;0.10;;;;;;;24.46;46.29;101170.41;5095953;28;20527;-87
2022/08/04 01:48:24;;;;;;;0.10;0.10;;;;;;;24.40;46.62;101184.25;5111703;28;20055;-86
2022/08/04 01:50:55;;;;;;;0.10;0.10;;;;;;;24.34;46.72;101174.25;5095380;28;20053;-86
2022/08/04 01:53:21;;;;;;;0.10;0.10;;;;;;;24.39;46.90;101191.34;5095647;28;20023;-86
2022/08/04 01:55:48;;;;;;;0.30;0.30;;;;;;;24.48;46.45;101189.59;5095450;28;20035;-86
2022/08/04 01:58:16;;;;;;;0.20;0.20;;;;;;;24.14;46.84;101140.00;5078631;28;20020;-86
2022/08/04 02:00:45;;;;;;;0.10;0.10;;;;;;;24.17;47.05;101160.84;5112285;28;20615;-85
2022/08/04 02:03:12;;;;;;;0.10;0.10;;;;;;;24.25;47.00;101176.78;5095531;28;20031;-86
2022/08/04 02:05:38;;;;;;;0.10;0.10;;;;;;;24.30;47.19;101182.47;5078895;28;20031;-86
2022/08/04 02:08:39;;;;;;;0.15;0.15;;;;;;;24.29;47.31;101191.38;5078502;28;20030;-85
2022/08/04 02:11:14;;;;;;;0.20;0.20;;;;;;;24.20;47.61;101176.41;5112707;28;20051;-86
2022/08/04 02:14:05;;;;;;;0.10;0.10;;;;;;;24.26;47.63;101190.84;5112528;28;20136;-86
2022/08/04 02:16:44;;;;;;;0.10;0.10;;;;;;;24.19;47.92;101189.78;5112405;28;20020;-86
2022/08/04 02:19:19;;;;;;;0.13;0.13;;;;;;;24.12;48.02;101188.72;5111594;28;20116;-87
2022/08/04 02:21:47;;;;;;;0.10;0.10;;;;;;;23.99;48.12;101184.63;5095462;28;20023;-86
2022/08/04 02:24:14;;;;;;;0.10;0.10;;;;;;;24.02;48.29;101194.06;5095380;28;20038;-86
2022/08/04 02:26:40;;;;;;;0.10;0.10;;;;;;;24.05;48.12;101199.03;5095494;28;20024;-86
2022/08/04 02:29:18;;;;;;;0.10;0.10;;;;;;;23.96;48.34;101200.75;5078256;28;20053;-86
2022/08/04 02:31:48;;;;;;;0.20;0.20;;;;;;;24.01;48.46;101195.88;5094678;28;20031;-86
2022/08/04 02:34:22;;;;;;;0.10;0.10;;;;;;;23.84;48.38;101177.34;5077821;28;20023;-85
2022/08/04 02:36:48;;;;;;;0.20;0.20;;;;;;;23.97;48.59;101193.66;5111767;28;20051;-86
2022/08/04 02:39:13;;;;;;;0.10;0.10;;;;;;;23.91;48.70;101197.75;5094816;28;20085;-86
2022/08/04 02:41:39;;;;;;;0.10;0.10;;;;;;;23.93;48.41;101187.03;5095158;28;20031;-86
2022/08/04 02:44:07;;;;;;;0.20;0.20;;;;;;;23.98;48.59;101192.69;5077891;28;20563;-86
2022/08/04 02:46:33;;;;;;;0.20;0.20;;;;;;;23.90;48.74;101185.50;5094967;28;20027;-86
2022/08/04 02:49:04;;;;;;;0.10;0.10;;;;;;;23.86;48.93;101194.69;5094296;28;20031;-86
2022/08/04 02:51:32;;;;;;;0.20;0.20;;;;;;;23.79;48.79;101184.84;5095077;28;20106;-86
2022/08/04 02:53:58;;;;;;;0.10;0.10;;;;;;;23.86;48.75;101194.69;5095209;28;20484;-86
2022/08/04 02:56:25;;;;;;;0.10;0.10;;;;;;;23.79;48.77;101174.28;5094392;28;20050;-86
2022/08/04 02:58:52;;;;;;;0.10;0.10;;;;;;;23.84;48.87;101196.66;5093622;28;20027;-86
2022/08/04 03:01:20;;;;;;;0.10;0.10;;;;;;;23.54;48.89;101142.28;5094317;28;20049;-86
2022/08/04 03:04:11;;;;;;;0.10;0.10;;;;;;;23.80;49.00;101191.84;5093986;28;20030;-85
2022/08/04 03:06:42;;;;;;;0.10;0.10;;;;;;;23.90;48.73;101195.25;5073601;28;20044;-85
2022/08/04 03:09:26;;;;;;;0.13;0.13;;;;;;;23.80;48.93;101183.91;5112778;28;20028;-83
2022/08/04 03:12:12;;;;;;;0.22;0.20;;;;;;;23.80;49.12;101195.31;5112260;28;20420;-82
2022/08/04 03:14:58;;;;;;;0.10;0.10;;;;;;;23.68;49.54;101207.84;5110835;28;20396;-82
2022/08/04 03:17:47;;;;;;;0.20;0.20;;;;;;;23.70;49.35;101205.91;5110762;28;20020;-82
2022/08/04 03:20:28;;;;;;;0.10;0.10;;;;;;;23.66;49.36;101201.06;5110667;28;20126;-82
2022/08/04 03:22:59;;;;;;;0.10;0.10;;;;;;;23.60;49.77;101206.94;5093869;28;20024;-82
2022/08/04 03:25:48;;;;;;;0.10;0.10;;;;;;;23.47;49.60;101186.09;5110948;28;20064;-82
2022/08/04 03:28:40;;;;;;;0.10;0.10;;;;;;;23.54;50.13;101212.75;5110728;28;20037;-82
2022/08/04 03:31:50;;;;;;;0.20;0.20;;;;;;;23.78;49.06;101205.16;5059254;28;20096;-82
2022/08/04 03:34:25;;;;;;;0.20;0.20;;;;;;;23.86;48.96;101215.84;5080439;27;20273;-82
2022/08/04 03:37:24;;;;;;;0.20;0.20;;;;;;;23.65;49.37;101212.59;5112316;28;20077;-82
2022/08/04 03:40:17;;;;;;;0.15;0.15;;;;;;;23.66;49.43;101209.81;5093548;28;20407;-82
2022/08/04 03:43:04;;;;;;;0.20;0.20;;;;;;;23.56;50.03;101208.16;5111864;28;20027;-82
2022/08/04 03:45:51;;;;;;;0.20;0.20;;;;;;;23.58;49.80;101216.75;5088376;28;20032;-86
2022/08/04 03:48:23;;;;;;;0.30;0.30;;;;;;;23.40;49.79;101216.69;5106797;28;20031;-85
2022/08/04 03:54:11;;;;;;;0.10;0.10;;;;;;;23.29;50.35;101216.84;5111364;28;20046;-81
2022/08/04 03:56:59;;;;;;;0.30;0.30;;;;;;;23.05;50.74;101218.16;5095360;28;20736;-81
2022/08/04 03:59:50;;;;;;;0.10;0.10;;;;;;;23.03;50.72;101198.19;5093925;28;20492;-81
2022/08/04 04:02:39;;;;;;;0.35;0.35;;;;;;;23.11;50.89;101236.09;5111304;28;20024;-81
2022/08/04 04:05:23;;;;;;;0.10;0.10;;;;;;;23.07;51.52;101237.31;5075927;28;20072;-82
2022/08/04 04:08:03;;;;;;;0.17;0.13;;;;;;;23.13;50.85;101238.56;5107539;28;20024;-81
2022/08/04 04:10:58;;;;;;;0.10;0.10;;;;;;;23.09;50.98;101239.81;5092245;28;20173;-81
2022/08/04 04:13:28;;;;;;;0.10;0.10;;;;;;;23.02;51.09;101247.47;5093004;28;20408;-82
2022/08/04 04:16:35;;;;;;;0.10;0.10;;;;;;;23.08;51.29;101260.09;5109455;28;20136;-83
2022/08/04 04:19:16;;;;;;;0.10;0.10;;;;;;;22.89;52.08;101254.84;5027247;28;20250;-82
2022/08/04 04:22:04;;;;;;;0.20;0.20;;;;;;;22.89;52.18;101260.13;5103356;28;20130;-83
2022/08/04 04:24:51;;;;;;;0.15;0.15;;;;;;;23.36;50.86;101262.84;5110422;28;20043;-84
2022/08/04 04:27:20;;;;;;;0.30;0.30;;;;;;;23.42;50.65;101264.91;5094196;28;20027;-84
2022/08/04 04:30:00;;;;;;;0.10;0.10;;;;;;;23.34;50.77;101267.44;5094882;28;20028;-90
2022/08/04 04:32:57;;;;;;;0.10;0.10;;;;;;;23.48;51.10;101262.53;5072995;28;20055;-90
2022/08/04 04:35:45;;;;;;;0.10;0.10;;;;;;;23.48;50.90;101270.44;5089548;28;20036;-92
2022/08/04 04:38:36;;;;;;;0.20;0.20;;;;;;;23.46;51.33;101274.22;5108617;28;20054;-90
2022/08/04 04:41:20;;;;;;;0.17;0.17;;;;;;;23.77;50.26;101274.00;5109914;28;20032;-86
2022/08/04 04:44:14;;;;;;;0.20;0.17;;;;;;;23.82;50.14;101279.69;5108733;28;20106;-86
2022/08/04 04:46:45;;;;;;;0.28;0.22;;;;;;;23.71;50.60;101278.91;5099040;28;20114;-86
2022/08/04 04:49:33;;;;;;;0.38;0.38;;;;;;;23.84;50.51;101283.03;5108696;28;20028;-86
2022/08/04 04:52:16;;;;;;;0.20;0.20;;;;;;;23.71;50.46;101278.91;5108624;28;20077;-86
2022/08/04 04:55:05;;;;;;;0.20;0.20;;;;;;;23.69;50.65;101254.41;5108586;28;20110;-84
2022/08/04 04:57:34;;;;;;;0.20;0.20;;;;;;;24.20;50.06;101295.38;5093379;28;20086;-89
2022/08/04 05:00:03;;;;;;;0.20;0.20;;;;;;;24.08;50.12;101287.78;5091406;28;20070;-88
2022/08/04 05:02:47;;;;;;;0.17;0.17;;;;;;;24.26;49.03;101297.41;5092423;28;20055;-86
2022/08/04 05:05:25;;;;;;;0.20;0.20;;;;;;;24.42;49.34;101295.97;5111162;28;20027;-90
2022/08/04 05:08:15;;;;;;;0.20;0.20;;;;;;;24.36;49.60;101293.91;5108282;28;20077;-82
2022/08/04 05:11:03;;;;;;;0.10;0.10;;;;;;;24.19;49.71;101298.19;5108798;28;20134;-93
2022/08/04 05:13:38;;;;;;;0.30;0.30;;;;;;;24.42;50.35;101309.22;5107789;28;20110;-83
2022/08/04 05:16:08;;;;;;;0.15;0.15;;;;;;;24.46;48.90;101295.53;5109549;28;20032;-86
2022/08/04 05:18:35;;;;;;;0.10;0.10;;;;;;;24.48;48.50;101300.66;5108238;28;20110;-85
2022/08/04 05:21:22;;;;;;;0.17;0.17;;;;;;;24.47;48.86;101309.56;5091295;28;20039;-85
2022/08/04 05:23:48;;;;;;;0.20;0.20;;;;;;;24.58;48.16;101297.00;5103568;28;20039;-86
2022/08/04 05:26:15;;;;;;;0.10;0.10;;;;;;;24.57;48.79;101305.88;5074750;28;20036;-84
2022/08/04 05:28:50;;;;;;;0.95;0.57;;;;;;;24.52;48.18;101302.03;5094430;28;20039;-84
2022/08/04 05:31:19;;;;;;;0.22;0.22;;;;;;;24.51;48.69;101305.66;5094956;28;20031;-84
2022/08/04 05:34:02;;;;;;;0.20;0.20;;;;;;;24.55;47.61;101313.16;5094373;28;20031;-83
2022/08/04 05:36:48;;;;;;;0.10;0.10;;;;;;;24.92;46.66;101312.19;5092444;28;20057;-88
2022/08/04 05:39:22;;;;;;;0.25;0.25;;;;;;;25.17;47.79;101308.81;5110739;28;20153;-88
2022/08/04 05:41:48;;;;;;;0.10;0.10;;;;;;;25.18;46.11;101314.94;5094452;28;20028;-90
2022/08/04 05:44:18;;;;;;;0.10;0.10;;;;;;;25.41;46.45;101325.88;5111432;28;20019;-87
2022/08/04 05:46:47;;;;;;;0.10;0.10;;;;;;;25.46;44.20;101319.09;5095664;28;20048;-84
2022/08/04 05:49:13;;;;;;;0.20;0.20;;;;;;;25.49;45.06;101309.22;5111559;28;20027;-84
2022/08/04 05:51:38;;;;;;;0.20;0.20;;;;;;;25.70;44.32;101325.59;5078345;28;20036;-88
2022/08/04 05:54:04;;;;;;;0.47;0.32;;;;;;;25.78;42.08;101319.53;5112002;28;20035;-85
2022/08/04 05:56:32;;;;;;;0.10;0.10;;;;;;;25.84;41.21;101318.88;5093916;28;20116;-84
2022/08/04 05:58:57;;;;;;;0.10;0.10;;;;;;;25.98;39.39;101328.91;5093947;28;20123;-84
2022/08/04 06:01:23;;;;;;;0.10;0.10;;;;;;;25.98;39.30;101324.44;5107997;28;20048;-85
2022/08/04 06:03:49;;;;;;;0.10;0.10;;;;;;;26.01;40.07;101318.81;5078043;28;20023;-85
2022/08/04 06:06:14;;;;;;;0.10;0.10;;;;;;;26.08;38.64;101326.97;5109631;28;20035;-87
2022/08/04 06:08:40;;;;;;;0.10;0.10;;;;;;;26.06;40.17;101330.78;5090992;28;20862;-81
2022/08/04 06:11:07;;;;;;;0.13;0.13;;;;;;;26.07;39.29;101303.25;5088842;28;20492;-84
2022/08/04 06:13:36;;;;;;;0.10;0.10;;;;;;;26.22;38.84;101314.91;5072381;28;20405;-87
2022/08/04 06:16:02;;;;;;;0.22;0.22;;;;;;;26.34;38.99;101324.22;5074223;28;20031;-89
2022/08/04 06:18:28;;;;;;;0.10;0.10;;;;;;;26.36;38.96;101316.13;5090579;28;20032;-86
2022/08/04 06:20:54;;;;;;;0.10;0.10;;;;;;;26.51;38.55;101315.34;5057055;28;20499;-84
2022/08/04 06:23:19;;;;;;;0.10;0.10;;;;;;;26.56;39.29;101321.03;5073129;28;20035;-85
2022/08/04 06:25:53;;;;;;;0.20;0.20;;;;;;;26.72;39.00;101322.03;5072812;28;20028;-84
2022/08/04 06:28:19;;;;;;;0.10;0.10;;;;;;;26.83;38.59;101311.94;5056745;28;20432;-86
2022/08/04 06:30:49;;;;;;;0.10;0.10;;;;;;;26.84;36.81;101316.25;5108694;28;20028;-85
2022/08/04 06:33:26;;;;;;;0.28;0.28;;;;;;;26.72;38.21;101316.72;5078078;28;20409;-86
2022/08/04 06:35:54;;;;;;;0.20;0.20;;;;;;;26.74;37.79;101326.19;5087133;28;20083;-86
2022/08/04 06:38:23;;;;;;;0.10;0.10;;;;;;;26.74;37.09;101312.06;5110128;28;20034;-86
2022/08/04 06:40:49;;;;;;;0.10;0.10;;;;;;;26.75;37.12;101319.91;5075232;28;20036;-86
2022/08/04 06:43:14;;;;;;;0.30;0.30;;;;;;;26.63;37.39;101323.84;5076876;28;20566;-85
2022/08/04 06:45:40;;;;;;;0.20;0.20;;;;;;;26.74;37.48;101320.03;5089717;28;20098;-85
2022/08/04 06:48:05;;;;;;;0.30;0.30;;;;;;;26.81;38.25;101321.88;5073263;28;20051;-86
2022/08/04 06:50:35;;;;;;;0.20;0.20;;;;;;;26.80;37.28;101311.44;5056407;28;20404;-85
2022/08/04 06:53:01;;;;;;;0.20;0.20;;;;;;;26.78;36.87;101310.78;5072855;28;20556;-83
2022/08/04 06:55:26;;;;;;;0.20;0.20;;;;;;;26.98;37.14;101330.69;5055678;28;20119;-83
2022/08/04 06:57:52;;;;;;;0.22;0.22;;;;;;;26.92;37.05;101317.25;5072377;28;20036;-85
2022/08/04 07:00:18;;;;;;;0.10;0.10;;;;;;;27.07;36.32;101321.78;5072761;28;20039;-84
2022/08/04 07:02:45;;;;;;;0.20;0.20;;;;;;;27.17;36.93;101326.09;5071978;28;20025;-86
2022/08/04 07:05:10;;;;;;;0.20;0.20;;;;;;;27.20;36.71;101310.66;5078782;28;20028;-92
2022/08/04 07:07:36;;;;;;;0.20;0.20;;;;;;;27.46;36.74;101334.38;5091322;28;20408;-87
2022/08/04 07:10:02;;;;;;;0.20;0.20;;;;;;;27.62;36.26;101339.66;5091713;28;20523;-83
2022/08/04 07:12:28;;;;;;;0.22;0.22;;;;;;;27.57;35.07;101319.91;5109465;28;20035;-82
2022/08/04 07:14:53;;;;;;;0.10;0.10;;;;;;;27.81;35.45;101342.97;5093561;28;20115;-86
2022/08/04 07:17:19;;;;;;;0.30;0.30;;;;;;;27.79;36.32;101332.50;5110703;28;20039;-84
2022/08/04 07:19:44;;;;;;;1.02;0.32;;;;;;;27.79;36.54;101310.41;5109787;28;20509;-90
2022/08/04 07:22:10;;;;;;;0.22;0.22;;;;;;;27.96;34.98;101330.63;5096880;28;20032;-91
2022/08/04 07:24:36;;;;;;;0.20;0.20;;;;;;;27.96;36.03;101322.66;5089220;28;20034;-83
2022/08/04 07:27:02;;;;;;;0.10;0.10;;;;;;;28.03;35.49;101328.13;5072306;28;20039;-82
2022/08/04 07:29:28;;;;;;;0.20;0.20;;;;;;;28.17;35.81;101325.56;5083231;28;20031;-85
2022/08/04 07:31:57;;;;;;;0.10;0.10;;;;;;;28.30;35.37;101319.72;5092159;28;20042;-90
2022/08/04 07:34:23;;;;;;;0.10;0.10;;;;;;;28.42;34.91;101323.66;5075621;28;20043;-87
2022/08/04 07:36:50;;;;;;;0.10;0.10;;;;;;;28.35;35.18;101308.56;5093314;28;20063;-87
2022/08/04 07:39:15;;;;;;;0.10;0.10;;;;;;;28.44;34.73;101331.47;5109840;28;20023;-86
2022/08/04 07:41:42;;;;;;;0.20;0.20;;;;;;;28.47;34.47;101320.47;5092915;28;20097;-87
2022/08/04 07:44:07;;;;;;;0.20;0.20;;;;;;;28.52;34.30;101315.44;5076269;28;20032;-87
2022/08/04 07:46:33;;;;;;;0.35;0.35;;;;;;;28.73;34.37;101314.81;5090467;28;20041;-88
2022/08/04 07:48:59;;;;;;;0.20;0.20;;;;;;;28.85;33.75;101314.22;5106762;28;20076;-94
2022/08/04 07:51:25;;;;;;;0.20;0.20;;;;;;;29.11;33.79;101329.88;5107448;28;20024;-84
2022/08/04 07:53:50;;;;;;;0.20;0.20;;;;;;;28.97;33.99;101304.00;5095905;28;20185;-87
2022/08/04 07:56:16;;;;;;;0.10;0.10;;;;;;;29.10;33.66;101312.22;5070281;28;20028;-87
2022/08/04 07:58:41;;;;;;;0.22;0.20;;;;;;;29.26;33.40;101305.09;5069946;28;20020;-86
2022/08/04 08:01:08;;;;;;;0.20;0.20;;;;;;;29.36;33.10;101311.81;5071111;28;20032;-86
2022/08/04 08:03:33;;;;;;;0.30;0.30;;;;;;;29.52;32.71;101315.38;5062576;28;20515;-93
2022/08/04 08:05:59;;;;;;;0.20;0.20;;;;;;;29.67;32.97;101319.69;5055047;28;20028;-84
2022/08/04 08:08:24;;;;;;;0.20;0.20;;;;;;;29.73;32.28;101314.63;5072253;28;20028;-85
2022/08/04 08:10:50;;;;;;;0.10;0.10;;;;;;;29.85;32.62;101322.00;5070619;28;20032;-84
2022/08/04 08:13:16;;;;;;;0.20;0.20;;;;;;;29.96;33.32;101326.84;5080465;28;20050;-85
2022/08/04 08:15:44;;;;;;;0.10;0.10;;;;;;;30.01;32.11;101317.50;5107001;28;20032;-87
2022/08/04 08:18:09;;;;;;;0.20;0.20;;;;;;;30.08;31.74;101310.41;5074310;28;20024;-88
2022/08/04 08:20:35;;;;;;;0.20;0.20;;;;;;;30.14;32.00;101321.16;5081426;28;20097;-89
2022/08/04 08:23:00;;;;;;;0.20;0.20;;;;;;;30.31;31.66;101328.97;5081129;28;20035;-86
2022/08/04 08:25:26;;;;;;;0.20;0.20;;;;;;;30.17;31.43;101309.28;5075187;28;20023;-89
2022/08/04 08:27:51;;;;;;;0.10;0.10;;;;;;;30.34;31.51;101321.41;5076204;28;20408;-83
2022/08/04 08:30:17;;;;;;;0.20;0.20;;;;;;;30.42;31.16;101323.97;5064349;28;20121;-87
2022/08/04 08:32:43;;;;;;;0.43;0.43;;;;;;;30.56;31.22;101312.41;5066733;28;20093;-88
2022/08/04 08:35:08;;;;;;;0.20;0.20;;;;;;;30.40;31.30;101318.00;5074240;28;20733;-86
2022/08/04 08:37:39;;;;;;;0.20;0.20;;;;;;;30.14;31.52;101297.16;5089380;28;20035;-86
2022/08/04 08:40:29;;;;;;;0.30;0.30;;;;;;;30.37;31.55;101321.03;5070958;28;20493;-90
2022/08/04 08:43:08;;;;;;;0.30;0.30;;;;;;;30.66;30.56;101321.97;5082313;28;20043;-86
2022/08/04 08:45:52;;;;;;;0.20;0.20;;;;;;;30.51;30.00;101327.34;5092184;28;20028;-88
2022/08/04 08:48:44;;;;;;;0.20;0.20;;;;;;;30.69;30.01;101308.28;5088573;28;20381;-88
2022/08/04 08:51:30;;;;;;;;;;;;;;;30.81;30.59;101323.59;5094613;28;20485;-86
2022/08/04 08:54:17;;;;;;;0.20;0.20;;;;;;;30.86;30.28;101304.31;5090370;28;19979;-84
2022/08/04 08:57:02;;;;;;;0.20;0.20;;;;;;;31.13;29.67;101316.06;5098191;28;20035;-86
2022/08/04 08:59:33;;;;;;;0.20;0.20;;;;;;;30.89;29.63;101309.28;5101739;28;20152;-84
2022/08/04 09:02:09;;;;;;;0.20;0.20;;;;;;;30.93;29.58;101299.03;5107059;28;20104;-86
2022/08/04 09:04:41;;;;;;;0.20;0.20;;;;;;;31.18;29.71;101296.78;5102330;28;20036;-86
2022/08/04 09:07:25;;;;;;;0.20;0.20;;;;;;;31.24;29.54;101309.38;5095386;28;20031;-85
2022/08/04 09:10:02;;;;;;;0.20;0.20;;;;;;;31.61;29.33;101309.03;5093945;28;20034;-87
2022/08/04 09:12:47;;;;;;;0.20;0.20;;;;;;;31.22;29.10;101276.69;5094074;28;20035;-95
2022/08/04 09:15:45;;;;;;;0.20;0.20;;;;;;;31.47;28.81;101293.09;5076607;28;20031;-86
2022/08/04 09:18:37;;;;;;;0.10;0.10;;;;;;;31.56;29.43;101295.44;5096218;28;20507;-85
2022/08/04 09:21:30;;;;;;;0.22;0.22;;;;;;;31.75;28.73;101282.34;5078060;28;20402;-85
2022/08/04 09:24:07;;;;;;;0.20;0.20;;;;;;;31.66;28.39;101285.19;5075227;28;20638;-84
2022/08/04 09:26:36;;;;;;;0.20;0.20;;;;;;;31.98;27.99;101277.56;5070463;28;20035;-84
2022/08/04 09:29:20;;;;;;;0.22;0.22;;;;;;;32.19;29.29;101289.97;5093232;28;20028;-85
2022/08/04 09:32:11;;;;;;;0.28;0.28;;;;;;;32.27;27.89;101287.13;5091129;28;20028;-87
2022/08/04 09:34:46;;;;;;;0.20;0.20;;;;;;;32.60;27.49;101281.03;5109068;28;20549;-92
2022/08/04 09:37:29;;;;;;;0.20;0.20;;;;;;;32.47;27.51;101282.66;5088730;28;20020;-86
2022/08/04 09:40:08;;;;;;;0.22;0.22;;;;;;;32.77;27.33;101288.47;5107179;28;20031;-91
2022/08/04 09:42:51;;;;;;;0.20;0.20;;;;;;;32.47;26.88;101265.78;5106412;28;20404;-87
2022/08/04 09:45:43;;;;;;;0.20;0.20;;;;;;;32.71;26.96;101262.50;5095926;28;20030;-89
2022/08/04 09:48:30;;;;;;;0.30;0.30;;;;;;;32.97;27.88;101285.00;5100061;28;20071;-89
2022/08/04 09:50:58;;;;;;;0.20;0.20;;;;;;;32.98;26.69;101279.44;5085098;28;20032;-91
2022/08/04 09:53:40;;;;;;;0.20;0.20;;;;;;;33.34;26.46;101287.03;5086586;28;20028;-88
2022/08/04 09:56:38;;;;;;;0.20;0.20;;;;;;;33.28;26.45;101274.47;5098323;28;20554;-87
2022/08/04 09:59:09;;;;;;;0.30;0.30;;;;;;;33.57;26.14;101275.06;5071704;28;20043;-92
2022/08/04 10:01:34;;;;;;;0.20;0.20;;;;;;;33.55;26.37;101269.91;5074604;28;20435;-92
2022/08/04 10:04:01;;;;;;;0.25;0.25;;;;;;;33.20;26.46;101260.44;5073719;28;20028;-92
2022/08/04 10:06:35;;;;;;;0.30;0.30;;;;;;;33.39;26.41;101278.38;5056781;28;20039;-90
2022/08/04 10:09:39;;;;;;;0.40;0.38;;;;;;;33.33;26.21;101268.47;5106719;28;20484;-92
2022/08/04 10:12:51;;;;;;;0.20;0.20;;;;;;;33.51;26.35;101273.19;5069801;28;20044;-93
2022/08/04 10:15:26;;;;;;;0.20;0.20;;;;;;;33.64;25.71;101265.13;5104759;28;20043;-91
2022/08/04 10:18:35;;;;;;;0.43;0.43;;;;;;;33.60;25.42;101261.22;5100948;28;20047;-90
2022/08/04 10:21:56;;;;;;;0.50;0.50;;;;;;;33.67;25.63;101262.03;5105894;28;20044;-89
2022/08/04 10:24:48;;;;;;;0.20;0.20;;;;;;;33.58;25.53;101255.25;5047868;28;20035;-86
2022/08/04 10:27:34;;;;;;;0.20;0.20;;;;;;;33.68;25.77;101258.28;5109680;28;20093;-91
2022/08/04 10:30:14;;;;;;;0.30;0.30;;;;;;;33.97;24.76;101253.47;5098189;28;20405;-83
2022/08/04 10:32:47;;;;;;;0.20;0.20;;;;;;;33.89;25.00;101246.47;5072831;28;20107;-87
2022/08/04 10:35:14;;;;;;;0.30;0.30;;;;;;;34.05;25.00;101247.84;5078550;28;20027;-87
2022/08/04 10:37:55;;;;;;;0.20;0.20;;;;;;;33.98;24.69;101247.88;5064889;28;20020;-86
2022/08/04 10:40:37;;;;;;;0.55;0.30;;;;;;;33.96;24.72;101228.47;5109709;28;20028;-90
2022/08/04 10:43:16;;;;;;;0.20;0.20;;;;;;;33.91;24.64;101242.53;5108522;28;20026;-90
2022/08/04 10:45:51;;;;;;;0.20;0.20;;;;;;;33.90;24.69;101238.19;5107941;28;20017;-87
2022/08/04 10:48:27;;;;;;;0.20;0.20;;;;;;;34.15;24.69;101227.56;5110177;28;20030;-88
2022/08/04 10:51:23;;;;;;;0.20;0.20;;;;;;;34.19;24.26;101236.81;5076509;28;20526;-89
2022/08/04 10:53:51;;;;;;;0.20;0.20;;;;;;;34.58;24.16;101236.78;5079552;28;20132;-86
2022/08/04 10:56:40;;;;;;;0.50;0.50;;;;;;;34.91;23.33;101232.00;5089852;28;20386;-87
2022/08/04 10:59:32;;;;;;;0.32;0.30;;;;;;;35.05;23.06;101230.81;5073047;28;20028;-85
2022/08/04 11:02:01;;;;;;;;;;;;;;;34.94;23.31;101226.19;5059044;28;20524;-85
2022/08/04 11:04:46;;;;;;;0.20;0.20;;;;;;;35.21;22.90;101220.53;5093210;28;19923;-92
2022/08/04 11:07:12;;;;;;;0.30;0.30;;;;;;;35.07;22.87;101209.09;5074355;28;20028;-85
2022/08/04 11:09:38;;;;;;;0.20;0.20;;;;;;;35.28;22.42;101221.25;5089118;28;20034;-83
2022/08/04 11:12:09;;;;;;;0.28;0.25;;;;;;;35.48;22.31;101189.59;5089210;28;20024;-85
2022/08/04 11:14:52;;;;;;;;;;;;;;;35.73;22.51;101219.09;5077908;28;20058;-83
2022/08/04 11:17:32;;;;;;;0.20;0.20;;;;;;;35.81;21.71;101191.06;5098109;28;19967;-84
2022/08/04 11:20:02;;;;;;;0.30;0.30;;;;;;;36.16;22.05;101218.94;5088752;28;20044;-86
2022/08/04 11:22:28;;;;;;;0.30;0.30;;;;;;;36.12;22.10;101195.41;5072353;28;20024;-88
2022/08/04 11:25:13;;;;;;;0.30;0.30;;;;;;;36.14;20.94;101218.34;5088170;28;20581;-83
2022/08/04 11:28:15;;;;;;;0.20;0.20;;;;;;;36.15;21.74;101208.41;5092121;28;20031;-90
2022/08/04 11:30:58;;;;;;;0.30;0.30;;;;;;;36.35;21.40;101200.06;5093636;28;20027;-87
2022/08/04 11:33:27;;;;;;;0.75;0.60;;;;;;;36.46;21.26;101208.16;5096044;28;20120;-86
2022/08/04 11:36:17;;;;;;;0.30;0.30;;;;;;;36.64;21.31;101198.31;5089846;28;20024;-85
2022/08/04 11:38:48;;;;;;;0.30;0.30;;;;;;;36.54;21.03;101190.00;5105664;28;20081;-85
2022/08/04 11:41:18;;;;;;;0.30;0.30;;;;;;;36.58;21.09;101189.31;5091277;28;20027;-88
2022/08/04 11:44:09;;;;;;;0.40;0.40;;;;;;;36.50;21.18;101181.56;5059495;28;20032;-87
2022/08/04 11:46:43;;;;;;;0.40;0.40;;;;;;;36.46;21.06;101178.50;5058735;28;20044;-85
2022/08/04 11:49:46;;;;;;;0.30;0.30;;;;;;;36.52;21.12;101184.03;5089849;28;20032;-84
2022/08/04 11:52:12;;;;;;;0.50;0.50;;;;;;;36.59;21.05;101180.19;5082249;28;20048;-86
2022/08/04 11:54:38;;;;;;;0.22;0.22;;;;;;;36.53;20.35;101175.72;5071670;28;20030;-83
2022/08/04 11:57:04;;;;;;;0.63;0.45;;;;;;;36.54;21.01;101166.56;5069796;28;20028;-85
2022/08/04 11:59:29;;;;;;;0.30;0.30;;;;;;;36.78;20.72;101161.19;5069491;28;20047;-86
2022/08/04 12:02:16;;;;;;;0.30;0.30;;;;;;;36.91;20.53;101166.34;5054031;28;20469;-82
2022/08/04 12:04:57;;;;;;;0.73;0.40;;;;;;;37.07;20.31;101172.88;5095145;28;20532;-86
2022/08/04 12:07:40;;;;;;;0.30;0.30;;;;;;;37.05;19.92;101156.94;5094801;28;20661;-83
2022/08/04 12:10:20;;;;;;;0.30;0.30;;;;;;;37.05;19.70;101149.66;5072216;28;20036;-84